EGLF - Farnborough
Distance from station: E 5mi, 14km
Updated: 04/25/2018 9:20am
Partly Cloudy
Partly Cloudy
 Wind from SW
Wind: SW 20 mph , 31 km/h
Temperature: 54°F , 12°C
Dew Point: 43°F , 6°C
Humidity: 67%
Barometer: 29.88 inHg , 1012 hPa
Clouds: Partly Cloudy
Visibility: 6 miles , 10 km
Cloud details: Partly Cloudy 2900 ft
2018/04/25 16:20 EGLF 251620Z 23017KT 9999 SCT029 12/06 Q1012